Time;durP1;ratioP1;P1;durP2;ratioP2;P2;SDS_P1;SDS_P2;PMS_P1;PMS_P2;Temp;Humidity;BMP_temperature;BMP_pressure;BME280_temperature;BME280_humidity;BME280_pressure;Samples;Min_cycle;Max_cycle;Signal;HPM_P1;HPM_P2
2022/10/12 00:00:21;;;;;;;6.68;3.42;;;;;;;;;;4890166;29;20052;-63
2022/10/12 00:02:47;;;;;;;11.18;3.90;;;;;;;;;;4888697;29;20045;-63
2022/10/12 00:05:14;;;;;;;9.43;3.78;;;;;;;;;;4887551;29;20085;-62
2022/10/12 00:07:40;;;;;;;5.80;2.92;;;;;;;;;;4888132;29;20105;-62
2022/10/12 00:10:07;;;;;;;8.10;3.20;;;;;;;;;;4887262;29;20044;-63
2022/10/12 00:12:33;;;;;;;6.47;2.75;;;;;;;;;;4888402;29;20052;-63
2022/10/12 00:14:59;;;;;;;6.35;2.95;;;;;;;;;;4892457;29;20107;-62
2022/10/12 00:17:26;;;;;;;5.47;3.95;;;;;;;;;;4906881;29;20044;-62
2022/10/12 00:19:52;;;;;;;7.05;3.00;;;;;;;;;;4905526;29;20073;-62
2022/10/12 00:22:18;;;;;;;7.85;3.50;;;;;;;;;;4905980;29;20057;-62
2022/10/12 00:24:45;;;;;;;6.07;3.10;;;;;;;;;;4906494;29;20069;-63
2022/10/12 00:27:12;;;;;;;5.07;3.00;;;;;;;;;;4908513;29;20044;-62
2022/10/12 00:29:38;;;;;;;6.10;3.10;;;;;;;;;;4911563;29;20040;-63
2022/10/12 00:32:05;;;;;;;8.00;3.47;;;;;;;;;;4911139;29;20120;-62
2022/10/12 00:34:31;;;;;;;8.50;3.72;;;;;;;;;;4910372;29;20123;-62
2022/10/12 00:36:57;;;;;;;12.63;4.82;;;;;;;;;;4911362;29;20112;-62
2022/10/12 00:39:24;;;;;;;7.72;3.38;;;;;;;;;;4911622;29;20052;-62
2022/10/12 00:41:50;;;;;;;6.53;3.65;;;;;;;;;;4908942;29;20068;-63
2022/10/12 00:44:49;;;;;;;6.90;3.25;;;;;;;;;;4913106;29;20112;-62
2022/10/12 00:47:22;;;;;;;6.50;3.00;;;;;;;;;;4892058;29;20104;-62
2022/10/12 00:49:54;;;;;;;6.72;3.83;;;;;;;;;;4914496;29;20097;-62
2022/10/12 00:52:24;;;;;;;6.95;3.40;;;;;;;;;;4913437;29;20052;-63
2022/10/12 00:54:52;;;;;;;8.68;2.92;;;;;;;;;;4912831;29;20092;-63
2022/10/12 00:57:20;;;;;;;7.80;3.42;;;;;;;;;;4921366;29;20048;-63
2022/10/12 00:59:49;;;;;;;8.13;3.33;;;;;;;;;;4904856;29;20089;-63
2022/10/12 01:02:16;;;;;;;9.10;3.30;;;;;;;;;;4905912;29;20104;-63
2022/10/12 01:04:42;;;;;;;7.82;3.25;;;;;;;;;;4899761;29;20080;-63
2022/10/12 01:07:09;;;;;;;6.15;3.20;;;;;;;;;;4900225;29;20112;-63
2022/10/12 01:09:35;;;;;;;9.63;3.10;;;;;;;;;;4900238;29;20052;-62
2022/10/12 01:12:03;;;;;;;9.32;3.25;;;;;;;;;;4901569;29;20053;-62
2022/10/12 01:14:29;;;;;;;8.98;3.08;;;;;;;;;;4902985;29;20068;-62
2022/10/12 01:16:58;;;;;;;8.25;3.20;;;;;;;;;;4902782;29;20052;-62
2022/10/12 01:19:37;;;;;;;5.38;2.40;;;;;;;;;;4903449;29;20080;-62
2022/10/12 01:22:05;;;;;;;6.00;2.72;;;;;;;;;;4903821;29;20045;-63
2022/10/12 01:24:35;;;;;;;8.38;2.97;;;;;;;;;;4903134;29;20073;-62
2022/10/12 01:27:19;;;;;;;8.88;3.53;;;;;;;;;;4906484;29;20112;-62
2022/10/12 01:30:04;;;;;;;6.25;2.88;;;;;;;;;;4909957;29;20044;-62
2022/10/12 01:32:43;;;;;;;7.18;3.47;;;;;;;;;;4901859;29;20049;-62
2022/10/12 01:35:19;;;;;;;8.95;3.35;;;;;;;;;;4903919;29;20096;-62
2022/10/12 01:37:50;;;;;;;5.85;2.85;;;;;;;;;;4905521;29;20497;-62
2022/10/12 01:40:25;;;;;;;8.13;3.35;;;;;;;;;;4907675;29;20060;-62
2022/10/12 01:42:52;;;;;;;7.18;2.88;;;;;;;;;;4909869;29;20073;-62
2022/10/12 01:45:19;;;;;;;4.30;2.80;;;;;;;;;;4909466;29;20055;-62
2022/10/12 01:47:48;;;;;;;5.28;2.55;;;;;;;;;;4910122;29;20047;-62
2022/10/12 01:50:15;;;;;;;5.05;2.80;;;;;;;;;;4910389;29;20048;-62
2022/10/12 01:53:02;;;;;;;4.88;2.72;;;;;;;;;;4909638;29;20047;-62
2022/10/12 01:55:50;;;;;;;4.20;2.65;;;;;;;;;;4909541;29;20064;-62
2022/10/12 01:58:22;;;;;;;5.53;3.25;;;;;;;;;;4913880;29;20049;-63
2022/10/12 02:01:09;;;;;;;20.50;10.20;;;;;;;;;;4921839;29;20044;-62
2022/10/12 02:03:42;;;;;;;7.47;3.30;;;;;;;;;;4916066;29;20064;-62
2022/10/12 02:06:14;;;;;;;8.38;3.75;;;;;;;;;;4923461;29;20073;-62
2022/10/12 02:08:41;;;;;;;7.53;3.22;;;;;;;;;;4923506;29;20033;-62
2022/10/12 02:11:12;;;;;;;7.10;3.28;;;;;;;;;;4924973;29;20036;-63
2022/10/12 02:13:53;;;;;;;6.05;3.63;;;;;;;;;;4917143;29;20052;-62
2022/10/12 02:16:22;;;;;;;12.23;3.88;;;;;;;;;;4908777;29;20088;-62
2022/10/12 02:18:50;;;;;;;7.78;3.28;;;;;;;;;;4909896;29;20052;-62
2022/10/12 02:21:19;;;;;;;9.18;3.80;;;;;;;;;;4909568;29;20052;-62
2022/10/12 02:23:47;;;;;;;5.82;2.72;;;;;;;;;;4908710;29;20037;-62
2022/10/12 02:26:14;;;;;;;9.35;3.03;;;;;;;;;;4908571;29;20040;-62
2022/10/12 02:28:42;;;;;;;4.97;2.47;;;;;;;;;;4907826;29;20556;-63
2022/10/12 02:31:28;;;;;;;6.57;3.03;;;;;;;;;;4904033;29;20540;-62
2022/10/12 02:33:57;;;;;;;7.15;3.72;;;;;;;;;;4906617;29;20044;-62
2022/10/12 02:36:36;;;;;;;7.43;3.40;;;;;;;;;;4907641;29;20123;-62
2022/10/12 02:39:12;;;;;;;11.82;3.38;;;;;;;;;;4907917;29;20115;-62
2022/10/12 02:41:41;;;;;;;5.88;3.00;;;;;;;;;;4908589;29;20500;-62
2022/10/12 02:44:10;;;;;;;5.03;2.58;;;;;;;;;;4906446;29;20104;-62
2022/10/12 02:46:37;;;;;;;5.40;2.90;;;;;;;;;;4909608;29;20048;-62
2022/10/12 02:49:04;;;;;;;6.57;3.20;;;;;;;;;;4910185;29;20092;-62
2022/10/12 02:51:31;;;;;;;9.73;2.50;;;;;;;;;;4908983;29;20044;-62
2022/10/12 02:53:58;;;;;;;4.13;2.30;;;;;;;;;;4909333;29;20531;-62
2022/10/12 02:56:24;;;;;;;4.13;2.33;;;;;;;;;;4909585;29;20116;-62
2022/10/12 02:58:51;;;;;;;7.72;2.95;;;;;;;;;;4906346;29;20064;-62
2022/10/12 03:01:17;;;;;;;3.85;2.10;;;;;;;;;;4907135;29;20048;-62
2022/10/12 03:03:44;;;;;;;5.93;2.30;;;;;;;;;;4904549;29;20509;-62
2022/10/12 03:06:11;;;;;;;6.45;2.60;;;;;;;;;;4905522;29;20054;-62
2022/10/12 03:08:38;;;;;;;3.72;2.35;;;;;;;;;;4906745;29;20106;-62
2022/10/12 03:11:06;;;;;;;4.65;2.42;;;;;;;;;;4907625;29;20044;-62
2022/10/12 03:13:32;;;;;;;6.40;2.50;;;;;;;;;;4907512;29;20052;-62
2022/10/12 03:16:06;;;;;;;4.88;2.80;;;;;;;;;;4904740;29;20097;-62
2022/10/12 03:18:33;;;;;;;5.63;2.85;;;;;;;;;;4906783;29;20048;-62
2022/10/12 03:20:59;;;;;;;5.22;2.80;;;;;;;;;;4907051;29;20064;-62
2022/10/12 03:23:26;;;;;;;7.35;2.85;;;;;;;;;;4904382;29;20071;-62
2022/10/12 03:25:52;;;;;;;8.27;2.80;;;;;;;;;;4906274;29;20123;-61
2022/10/12 03:28:19;;;;;;;9.65;3.78;;;;;;;;;;4905585;29;20045;-62
2022/10/12 03:30:46;;;;;;;19.13;5.18;;;;;;;;;;4905147;29;20044;-62
2022/10/12 03:33:12;;;;;;;27.02;7.13;;;;;;;;;;4904436;29;20059;-62
2022/10/12 03:35:38;;;;;;;12.43;4.03;;;;;;;;;;4904624;29;20048;-61
2022/10/12 03:38:05;;;;;;;7.05;3.20;;;;;;;;;;4906274;29;20065;-62
2022/10/12 03:40:31;;;;;;;6.00;3.25;;;;;;;;;;4906017;29;20052;-62
2022/10/12 03:42:58;;;;;;;7.65;3.15;;;;;;;;;;4905333;29;20048;-62
2022/10/12 03:45:24;;;;;;;9.38;3.42;;;;;;;;;;4905282;29;20104;-62
2022/10/12 03:47:50;;;;;;;6.82;3.30;;;;;;;;;;4906890;29;20557;-62
2022/10/12 03:50:17;;;;;;;9.57;3.17;;;;;;;;;;4907535;29;20041;-62
2022/10/12 03:52:43;;;;;;;10.95;3.55;;;;;;;;;;4907191;29;20053;-63
2022/10/12 03:55:10;;;;;;;8.40;3.08;;;;;;;;;;4905062;29;20045;-62
2022/10/12 03:57:36;;;;;;;8.35;3.53;;;;;;;;;;4906031;29;20080;-62
2022/10/12 04:00:03;;;;;;;8.63;4.82;;;;;;;;;;4905258;29;20433;-62
2022/10/12 04:02:30;;;;;;;8.93;2.92;;;;;;;;;;5356756;23;20059;-59
2022/10/12 04:04:56;;;;;;;6.10;2.75;;;;;;;;;;4935688;29;20403;-59
2022/10/12 04:07:22;;;;;;;7.03;2.80;;;;;;;;;;4936205;29;20075;-60
2022/10/12 04:09:49;;;;;;;8.77;2.45;;;;;;;;;;4935020;29;20043;-60
2022/10/12 04:12:15;;;;;;;5.30;3.13;;;;;;;;;;4936130;29;20055;-60
2022/10/12 04:14:42;;;;;;;7.03;2.80;;;;;;;;;;4935308;29;20124;-59
2022/10/12 04:17:08;;;;;;;6.10;2.70;;;;;;;;;;4934700;29;20058;-58
2022/10/12 04:19:35;;;;;;;10.63;4.47;;;;;;;;;;4935874;29;20052;-59
2022/10/12 04:22:01;;;;;;;9.75;3.45;;;;;;;;;;4935929;29;20056;-58
2022/10/12 04:24:27;;;;;;;6.47;2.88;;;;;;;;;;4933796;29;20047;-57
2022/10/12 04:26:54;;;;;;;9.20;3.05;;;;;;;;;;4935599;29;20040;-57
2022/10/12 04:29:21;;;;;;;7.35;3.08;;;;;;;;;;4935696;29;20099;-57
2022/10/12 04:31:47;;;;;;;13.23;3.88;;;;;;;;;;4935344;29;20047;-59
2022/10/12 04:34:14;;;;;;;6.32;3.40;;;;;;;;;;4934877;29;20503;-60
2022/10/12 04:36:40;;;;;;;7.47;3.33;;;;;;;;;;4935338;29;20047;-58
2022/10/12 04:39:07;;;;;;;10.60;3.50;;;;;;;;;;4935331;29;20087;-57
2022/10/12 04:41:33;;;;;;;7.05;3.20;;;;;;;;;;4935374;29;20413;-57
2022/10/12 04:44:00;;;;;;;7.07;3.47;;;;;;;;;;4933548;29;20055;-58
2022/10/12 04:46:26;;;;;;;6.65;2.70;;;;;;;;;;4936598;29;20456;-59
2022/10/12 04:48:52;;;;;;;8.27;2.92;;;;;;;;;;4938192;29;20086;-59
2022/10/12 04:51:19;;;;;;;4.53;2.95;;;;;;;;;;4938082;29;20047;-60
2022/10/12 04:53:45;;;;;;;7.35;3.30;;;;;;;;;;4938075;29;20051;-59
2022/10/12 04:56:11;;;;;;;6.07;3.20;;;;;;;;;;4920761;29;20129;-60
2022/10/12 04:58:38;;;;;;;6.75;2.95;;;;;;;;;;4936529;29;20052;-60
2022/10/12 05:01:04;;;;;;;4.55;3.10;;;;;;;;;;4935290;29;20043;-61
2022/10/12 05:03:31;;;;;;;7.72;3.25;;;;;;;;;;4934427;29;20519;-58
2022/10/12 05:05:57;;;;;;;10.13;3.17;;;;;;;;;;4933862;29;20050;-60
2022/10/12 05:08:24;;;;;;;10.27;3.10;;;;;;;;;;4935182;29;20489;-59
2022/10/12 05:10:50;;;;;;;7.55;2.90;;;;;;;;;;4935202;29;20036;-58
2022/10/12 05:13:17;;;;;;;5.28;3.60;;;;;;;;;;4917234;29;20047;-60
2022/10/12 05:15:44;;;;;;;7.65;2.78;;;;;;;;;;4934951;29;20043;-61
2022/10/12 05:18:10;;;;;;;7.47;3.17;;;;;;;;;;4935008;29;20086;-60
2022/10/12 05:20:36;;;;;;;12.00;3.67;;;;;;;;;;4934652;29;20111;-60
2022/10/12 05:23:03;;;;;;;6.30;3.10;;;;;;;;;;4934775;29;20094;-58
2022/10/12 05:25:29;;;;;;;10.93;3.13;;;;;;;;;;4934329;29;20547;-59
2022/10/12 05:27:56;;;;;;;7.70;3.10;;;;;;;;;;4935087;29;20044;-59
2022/10/12 05:30:22;;;;;;;4.88;3.15;;;;;;;;;;4935801;29;20111;-59
2022/10/12 05:32:49;;;;;;;8.38;3.53;;;;;;;;;;4935269;29;20095;-59
2022/10/12 05:35:15;;;;;;;7.38;3.95;;;;;;;;;;4934283;29;20059;-58
2022/10/12 05:37:42;;;;;;;7.85;3.22;;;;;;;;;;4934686;29;20044;-59
2022/10/12 05:40:08;;;;;;;8.55;3.28;;;;;;;;;;4933520;29;20074;-59
2022/10/12 05:42:35;;;;;;;11.60;4.38;;;;;;;;;;4933430;29;20496;-59
2022/10/12 05:45:02;;;;;;;4.70;3.17;;;;;;;;;;4933902;29;20048;-59
2022/10/12 05:47:29;;;;;;;6.85;3.03;;;;;;;;;;4933604;29;20111;-60
2022/10/12 05:49:55;;;;;;;7.22;3.00;;;;;;;;;;4933453;29;20099;-59
2022/10/12 05:52:22;;;;;;;5.70;2.65;;;;;;;;;;4934506;29;20051;-59
2022/10/12 05:54:48;;;;;;;7.22;2.97;;;;;;;;;;4933973;29;20036;-59
2022/10/12 05:57:15;;;;;;;9.10;3.00;;;;;;;;;;4934656;29;20040;-59
2022/10/12 05:59:42;;;;;;;10.05;3.45;;;;;;;;;;4933215;29;20055;-57
2022/10/12 06:02:15;;;;;;;5.60;3.17;;;;;;;;;;4934470;29;20496;-59
2022/10/12 06:04:41;;;;;;;10.10;3.50;;;;;;;;;;4933864;29;20480;-60
2022/10/12 06:07:08;;;;;;;8.77;4.75;;;;;;;;;;4934391;29;20099;-59
2022/10/12 06:09:37;;;;;;;7.38;3.00;;;;;;;;;;4933174;29;20493;-60
2022/10/12 06:12:04;;;;;;;9.27;4.13;;;;;;;;;;4933091;29;20039;-60
2022/10/12 06:14:31;;;;;;;5.72;3.80;;;;;;;;;;4933951;29;20047;-59
2022/10/12 06:16:57;;;;;;;7.57;3.53;;;;;;;;;;4934414;29;20043;-61
2022/10/12 06:19:24;;;;;;;5.60;3.58;;;;;;;;;;4933219;29;20102;-61
2022/10/12 06:21:50;;;;;;;9.45;4.13;;;;;;;;;;4934435;29;20103;-60
2022/10/12 06:24:16;;;;;;;8.98;3.83;;;;;;;;;;4933798;29;20113;-59
2022/10/12 06:26:43;;;;;;;9.00;3.70;;;;;;;;;;4936447;29;20075;-61
2022/10/12 06:29:09;;;;;;;6.45;3.28;;;;;;;;;;4936537;29;20052;-60
2022/10/12 06:31:37;;;;;;;8.35;3.75;;;;;;;;;;4937637;29;20079;-60
2022/10/12 06:34:03;;;;;;;8.32;3.22;;;;;;;;;;4937376;29;20040;-61
2022/10/12 06:36:30;;;;;;;10.75;3.53;;;;;;;;;;4937910;29;20408;-59
2022/10/12 06:38:56;;;;;;;11.80;3.90;;;;;;;;;;4937867;29;20400;-59
2022/10/12 06:41:22;;;;;;;9.23;4.25;;;;;;;;;;4937659;29;20102;-60
2022/10/12 06:43:49;;;;;;;7.07;3.35;;;;;;;;;;4928505;29;20567;-61
2022/10/12 06:46:15;;;;;;;6.85;3.40;;;;;;;;;;4937787;29;20051;-61
2022/10/12 06:48:42;;;;;;;7.88;3.97;;;;;;;;;;4938116;29;20099;-60
2022/10/12 06:51:08;;;;;;;11.18;3.20;;;;;;;;;;4938243;29;20489;-60
2022/10/12 06:53:35;;;;;;;6.57;3.53;;;;;;;;;;4937555;29;20401;-62
2022/10/12 06:56:05;;;;;;;10.68;4.50;;;;;;;;;;4938040;29;20122;-62
2022/10/12 06:58:32;;;;;;;7.15;4.10;;;;;;;;;;4937848;29;20067;-60
2022/10/12 07:01:00;;;;;;;14.10;5.05;;;;;;;;;;4937647;29;20060;-61
2022/10/12 07:03:27;;;;;;;11.30;4.05;;;;;;;;;;4936746;29;20103;-61
2022/10/12 07:05:53;;;;;;;9.45;4.80;;;;;;;;;;4936858;29;20079;-61
2022/10/12 07:08:19;;;;;;;15.30;4.70;;;;;;;;;;4936019;29;20681;-61
2022/10/12 07:10:46;;;;;;;9.68;4.00;;;;;;;;;;4937101;29;20504;-61
2022/10/12 07:13:12;;;;;;;13.05;4.55;;;;;;;;;;4936615;29;20048;-60
2022/10/12 07:15:39;;;;;;;11.18;4.50;;;;;;;;;;4936997;29;20047;-61
2022/10/12 07:18:05;;;;;;;19.20;5.25;;;;;;;;;;4932052;29;21800;-61
2022/10/12 07:23:19;;;;;;;8.88;4.75;;;;;;;;;;5326658;23;20735;-57
2022/10/12 07:25:47;;;;;;;15.30;4.55;;;;;;;;;;4928283;29;20460;-57
2022/10/12 07:28:13;;;;;;;8.52;4.57;;;;;;;;;;4936663;28;20052;-60
2022/10/12 07:30:39;;;;;;;8.30;4.35;;;;;;;;;;4935723;29;20062;-59
2022/10/12 07:33:06;;;;;;;9.23;4.22;;;;;;;;;;4944341;29;20118;-58
2022/10/12 07:35:32;;;;;;;7.80;3.72;;;;;;;;;;4955763;28;20078;-58
2022/10/12 07:37:58;;;;;;;9.43;4.07;;;;;;;;;;4955580;28;20384;-58
2022/10/12 07:40:25;;;;;;;8.32;3.85;;;;;;;;;;4955775;28;20102;-59
2022/10/12 07:42:51;;;;;;;9.55;4.30;;;;;;;;;;4955037;28;20054;-60
2022/10/12 07:45:38;;;;;;;10.20;4.25;;;;;;;;;;4955144;29;20070;-59
2022/10/12 07:48:05;;;;;;;17.77;5.72;;;;;;;;;;4956997;28;20047;-60
2022/10/12 07:50:31;;;;;;;11.50;5.03;;;;;;;;;;4955084;29;20094;-56
2022/10/12 07:52:57;;;;;;;10.57;5.40;;;;;;;;;;4954454;28;20044;-57
2022/10/12 07:55:24;;;;;;;13.10;5.35;;;;;;;;;;4954332;29;20075;-59
2022/10/12 07:57:50;;;;;;;7.55;4.47;;;;;;;;;;4955427;28;20559;-59
2022/10/12 08:00:17;;;;;;;11.65;4.72;;;;;;;;;;4954183;29;20082;-57
2022/10/12 08:02:43;;;;;;;12.48;5.22;;;;;;;;;;4954582;28;20389;-58
2022/10/12 08:05:09;;;;;;;10.35;4.45;;;;;;;;;;4955255;28;20142;-59
2022/10/12 08:07:36;;;;;;;8.63;4.45;;;;;;;;;;4955126;28;20105;-59
2022/10/12 08:10:03;;;;;;;9.95;3.90;;;;;;;;;;4955114;28;20071;-59
2022/10/12 08:12:30;;;;;;;10.18;4.57;;;;;;;;;;4953493;29;20066;-59
2022/10/12 08:14:56;;;;;;;8.40;4.63;;;;;;;;;;4955179;28;20504;-59
2022/10/12 08:17:23;;;;;;;10.00;4.43;;;;;;;;;;4954952;28;20050;-60
2022/10/12 08:19:49;;;;;;;7.93;4.60;;;;;;;;;;4955058;28;20043;-59
2022/10/12 08:22:16;;;;;;;10.18;4.78;;;;;;;;;;4953550;29;20091;-59
2022/10/12 08:24:42;;;;;;;12.65;4.50;;;;;;;;;;4953517;29;20047;-59
2022/10/12 08:27:09;;;;;;;16.58;5.97;;;;;;;;;;4954959;28;20063;-59
2022/10/12 08:29:35;;;;;;;15.48;5.28;;;;;;;;;;4954952;28;20464;-59
2022/10/12 08:32:02;;;;;;;9.60;4.32;;;;;;;;;;4953005;29;20043;-59
2022/10/12 08:34:29;;;;;;;9.32;4.65;;;;;;;;;;4953964;29;20134;-61
2022/10/12 08:36:57;;;;;;;11.55;5.35;;;;;;;;;;4938029;29;20373;-60
2022/10/12 08:39:23;;;;;;;8.20;4.10;;;;;;;;;;4953684;29;20058;-61
2022/10/12 08:42:08;;;;;;;12.52;4.68;;;;;;;;;;4954754;28;20086;-60
2022/10/12 08:44:51;;;;;;;11.63;5.95;;;;;;;;;;4954529;28;20465;-58
2022/10/12 08:47:26;;;;;;;13.93;6.55;;;;;;;;;;4953426;29;20094;-61
2022/10/12 08:49:52;;;;;;;12.70;4.85;;;;;;;;;;4954181;28;20071;-63
2022/10/12 08:52:22;;;;;;;12.27;5.28;;;;;;;;;;4953825;28;20043;-63
2022/10/12 08:54:48;;;;;;;10.18;4.95;;;;;;;;;;4953027;29;20051;-63
2022/10/12 08:57:16;;;;;;;9.13;4.50;;;;;;;;;;4954472;28;20047;-62
2022/10/12 08:59:43;;;;;;;8.98;4.35;;;;;;;;;;4953199;29;20093;-63
2022/10/12 09:02:12;;;;;;;9.98;4.95;;;;;;;;;;4953719;28;20101;-62
2022/10/12 09:04:42;;;;;;;9.07;3.90;;;;;;;;;;4954269;28;20051;-62
2022/10/12 09:07:14;;;;;;;10.43;4.43;;;;;;;;;;4953078;29;20445;-61
2022/10/12 09:09:46;;;;;;;8.98;4.60;;;;;;;;;;4954216;28;20054;-62
2022/10/12 09:12:29;;;;;;;9.65;4.13;;;;;;;;;;4952364;29;20081;-63
2022/10/12 09:14:59;;;;;;;9.20;4.68;;;;;;;;;;4954593;28;20062;-62
2022/10/12 09:17:27;;;;;;;9.52;4.10;;;;;;;;;;4953071;29;20102;-63
2022/10/12 09:20:02;;;;;;;8.35;3.88;;;;;;;;;;4937691;29;20507;-62
2022/10/12 09:22:29;;;;;;;11.68;4.68;;;;;;;;;;4954293;28;20047;-62
2022/10/12 09:24:56;;;;;;;12.98;5.60;;;;;;;;;;4955407;28;20487;-63
2022/10/12 09:27:23;;;;;;;13.13;4.25;;;;;;;;;;4955452;28;20098;-62
2022/10/12 09:29:52;;;;;;;12.93;6.03;;;;;;;;;;4956067;28;20515;-62
2022/10/12 09:32:22;;;;;;;10.43;4.90;;;;;;;;;;4955290;28;20142;-62
2022/10/12 09:34:48;;;;;;;8.50;4.95;;;;;;;;;;4938112;29;20050;-58
2022/10/12 09:37:21;;;;;;;15.65;5.82;;;;;;;;;;4954195;28;20114;-59
2022/10/12 09:39:48;;;;;;;9.52;4.95;;;;;;;;;;4954680;28;20051;-60
2022/10/12 09:42:14;;;;;;;10.70;4.30;;;;;;;;;;4953904;28;22203;-59
2022/10/12 09:44:42;;;;;;;10.43;4.57;;;;;;;;;;4953534;29;20058;-61
2022/10/12 09:47:28;;;;;;;10.07;5.82;;;;;;;;;;4953263;29;20397;-60
2022/10/12 09:49:57;;;;;;;10.43;5.78;;;;;;;;;;4953115;29;20039;-61
2022/10/12 09:52:26;;;;;;;10.93;5.63;;;;;;;;;;4952434;29;20047;-61
2022/10/12 09:55:04;;;;;;;12.80;6.75;;;;;;;;;;4954218;28;20035;-59
2022/10/12 09:57:34;;;;;;;10.27;5.00;;;;;;;;;;4953014;29;20044;-59
2022/10/12 10:00:04;;;;;;;9.18;4.97;;;;;;;;;;4954517;28;20050;-61
2022/10/12 10:02:46;;;;;;;9.35;4.45;;;;;;;;;;4957223;28;20058;-60
2022/10/12 10:05:13;;;;;;;10.63;5.18;;;;;;;;;;4958794;28;20043;-60
2022/10/12 10:07:40;;;;;;;12.93;5.78;;;;;;;;;;4958452;28;20046;-61
2022/10/12 10:10:18;;;;;;;8.88;5.22;;;;;;;;;;4958086;28;20055;-60
2022/10/12 10:12:54;;;;;;;9.27;5.43;;;;;;;;;;4957871;28;20055;-60
2022/10/12 10:15:26;;;;;;;19.52;5.60;;;;;;;;;;4957777;28;20082;-59
2022/10/12 10:17:58;;;;;;;11.77;5.72;;;;;;;;;;4957427;28;20039;-60
2022/10/12 10:20:27;;;;;;;12.15;5.72;;;;;;;;;;4957776;28;20049;-60
2022/10/12 10:22:55;;;;;;;10.88;5.40;;;;;;;;;;4956233;28;20052;-59
2022/10/12 10:25:21;;;;;;;13.32;5.20;;;;;;;;;;4958113;28;20047;-59
2022/10/12 10:27:49;;;;;;;12.00;5.20;;;;;;;;;;4957335;28;20043;-59
2022/10/12 10:30:16;;;;;;;7.63;5.03;;;;;;;;;;4957463;28;20035;-59
2022/10/12 10:33:11;;;;;;;8.50;5.25;;;;;;;;;;4956792;28;20130;-60
2022/10/12 10:35:38;;;;;;;12.30;5.55;;;;;;;;;;4957350;28;20098;-58
2022/10/12 10:38:06;;;;;;;10.68;5.80;;;;;;;;;;4957103;28;20047;-58
2022/10/12 10:40:32;;;;;;;13.73;5.60;;;;;;;;;;4957277;28;20412;-62
2022/10/12 10:43:14;;;;;;;8.60;6.07;;;;;;;;;;4956551;28;20043;-60
2022/10/12 10:45:49;;;;;;;11.18;5.80;;;;;;;;;;4955920;29;20051;-60
2022/10/12 10:48:25;;;;;;;11.15;6.60;;;;;;;;;;4957509;28;20047;-61
2022/10/12 10:50:55;;;;;;;12.27;5.80;;;;;;;;;;4957018;28;20039;-64
2022/10/12 10:53:25;;;;;;;7.50;5.18;;;;;;;;;;4955539;29;20035;-61
2022/10/12 10:56:10;;;;;;;9.30;5.30;;;;;;;;;;4957633;28;20114;-63
2022/10/12 10:58:40;;;;;;;15.95;8.27;;;;;;;;;;4957205;28;20043;-60
2022/10/12 11:01:33;;;;;;;11.15;5.68;;;;;;;;;;4955860;29;20047;-59
2022/10/12 11:04:18;;;;;;;11.25;6.22;;;;;;;;;;4933296;29;20092;-58
2022/10/12 11:06:51;;;;;;;8.73;5.20;;;;;;;;;;4956809;28;20094;-60
2022/10/12 11:09:40;;;;;;;9.38;5.25;;;;;;;;;;4955752;29;20105;-60
2022/10/12 11:12:08;;;;;;;10.75;5.38;;;;;;;;;;4954605;28;20035;-60
2022/10/12 11:14:38;;;;;;;10.50;4.82;;;;;;;;;;4955489;29;20050;-59
2022/10/12 11:17:11;;;;;;;9.18;5.68;;;;;;;;;;4956528;28;20074;-61
2022/10/12 11:19:41;;;;;;;12.40;6.10;;;;;;;;;;4955876;29;20403;-59
2022/10/12 11:22:14;;;;;;;12.50;6.15;;;;;;;;;;4954895;29;20062;-59
2022/10/12 11:24:50;;;;;;;10.23;5.20;;;;;;;;;;4939403;29;20507;-60
2022/10/12 11:27:27;;;;;;;12.45;6.80;;;;;;;;;;4956741;28;20039;-58
2022/10/12 11:29:55;;;;;;;11.18;5.40;;;;;;;;;;4955244;29;20107;-61
2022/10/12 11:32:37;;;;;;;12.50;5.82;;;;;;;;;;4955350;28;20067;-61
2022/10/12 11:35:05;;;;;;;10.65;5.40;;;;;;;;;;4956225;28;20051;-60
2022/10/12 11:37:31;;;;;;;9.48;5.47;;;;;;;;;;4955922;28;20051;-62
2022/10/12 11:40:00;;;;;;;8.75;5.60;;;;;;;;;;4956000;28;20098;-60
2022/10/12 11:42:27;;;;;;;10.05;5.25;;;;;;;;;;4955751;28;20047;-60
2022/10/12 11:44:53;;;;;;;14.50;6.85;;;;;;;;;;4955723;29;20122;-60
2022/10/12 11:47:26;;;;;;;18.15;5.88;;;;;;;;;;4956874;28;20043;-59
2022/10/12 11:49:56;;;;;;;12.18;6.57;;;;;;;;;;4955956;28;20047;-60
2022/10/12 11:52:24;;;;;;;11.13;5.88;;;;;;;;;;4955350;28;20047;-60
2022/10/12 11:55:03;;;;;;;15.43;6.03;;;;;;;;;;4955684;28;20484;-60
2022/10/12 11:57:32;;;;;;;9.60;5.05;;;;;;;;;;4955995;28;20389;-60
2022/10/12 11:59:59;;;;;;;9.63;5.20;;;;;;;;;;4955718;28;20527;-60
2022/10/12 12:02:30;;;;;;;11.90;5.63;;;;;;;;;;4954826;28;20078;-60
2022/10/12 12:04:57;;;;;;;10.93;5.60;;;;;;;;;;4955560;28;20043;-59
2022/10/12 12:07:42;;;;;;;10.25;5.95;;;;;;;;;;4955436;28;20488;-61
2022/10/12 12:10:24;;;;;;;13.60;6.30;;;;;;;;;;4955496;28;20098;-61
2022/10/12 12:13:10;;;;;;;11.70;4.88;;;;;;;;;;4954678;28;20051;-60
2022/10/12 12:15:37;;;;;;;12.13;5.90;;;;;;;;;;4953605;28;20534;-60
2022/10/12 12:18:10;;;;;;;10.23;5.20;;;;;;;;;;4935540;29;20039;-60
2022/10/12 12:20:57;;;;;;;8.05;5.07;;;;;;;;;;4936099;29;20512;-58
2022/10/12 12:23:25;;;;;;;7.70;4.40;;;;;;;;;;4927737;29;20067;-60
2022/10/12 12:26:03;;;;;;;11.75;5.47;;;;;;;;;;4935585;29;20428;-59
2022/10/12 12:28:30;;;;;;;10.75;4.80;;;;;;;;;;4936306;29;20039;-60
2022/10/12 12:30:58;;;;;;;10.65;4.18;;;;;;;;;;4934806;29;20047;-58
2022/10/12 12:33:37;;;;;;;10.45;4.60;;;;;;;;;;4935631;29;20040;-60
2022/10/12 12:36:05;;;;;;;7.88;5.55;;;;;;;;;;4935213;29;20412;-61
2022/10/12 12:38:33;;;;;;;10.55;5.53;;;;;;;;;;4935907;29;20043;-59
2022/10/12 12:41:02;;;;;;;9.38;4.65;;;;;;;;;;4935898;29;20051;-59
2022/10/12 12:43:28;;;;;;;7.50;4.80;;;;;;;;;;4934930;29;20048;-60
2022/10/12 12:45:56;;;;;;;9.95;5.05;;;;;;;;;;4935550;29;20099;-60
2022/10/12 12:48:55;;;;;;;10.35;5.55;;;;;;;;;;4935515;29;20052;-61
2022/10/12 12:51:24;;;;;;;11.15;5.68;;;;;;;;;;4913830;29;20054;-62
2022/10/12 12:54:09;;;;;;;10.38;5.72;;;;;;;;;;4933441;29;20050;-61
2022/10/12 12:57:02;;;;;;;10.32;5.15;;;;;;;;;;4935514;29;20051;-62
2022/10/12 12:59:58;;;;;;;8.50;5.00;;;;;;;;;;4934350;29;20107;-61
2022/10/12 13:02:39;;;;;;;12.25;5.20;;;;;;;;;;4934637;29;20043;-61
2022/10/12 13:05:05;;;;;;;12.25;5.00;;;;;;;;;;4935288;29;20184;-61
2022/10/12 13:07:35;;;;;;;8.38;5.28;;;;;;;;;;4933843;29;20393;-61
2022/10/12 13:10:21;;;;;;;11.18;5.88;;;;;;;;;;4935203;29;20043;-62
2022/10/12 13:12:54;;;;;;;13.73;5.35;;;;;;;;;;4934459;29;20047;-62
2022/10/12 13:15:29;;;;;;;12.18;5.63;;;;;;;;;;4934991;29;20496;-62
2022/10/12 13:17:56;;;;;;;12.68;5.47;;;;;;;;;;4934990;29;20043;-62
2022/10/12 13:20:27;;;;;;;9.60;5.82;;;;;;;;;;4935232;29;20043;-62
2022/10/12 13:22:56;;;;;;;13.75;5.82;;;;;;;;;;4934489;29;20070;-62
2022/10/12 13:25:49;;;;;;;12.48;6.63;;;;;;;;;;4933336;29;20063;-62
2022/10/12 13:28:24;;;;;;;15.05;7.30;;;;;;;;;;4934706;29;20043;-61
2022/10/12 13:30:57;;;;;;;13.68;6.57;;;;;;;;;;4934829;29;20044;-62
2022/10/12 13:33:39;;;;;;;10.85;6.05;;;;;;;;;;4934286;29;20106;-62
2022/10/12 13:36:26;;;;;;;10.68;6.35;;;;;;;;;;4939787;29;20055;-62
2022/10/12 13:38:56;;;;;;;9.50;6.35;;;;;;;;;;4941154;29;20051;-63
2022/10/12 13:41:24;;;;;;;12.65;7.07;;;;;;;;;;4941353;29;20112;-62
2022/10/12 13:43:55;;;;;;;9.95;6.63;;;;;;;;;;4940752;29;20043;-61
2022/10/12 13:46:31;;;;;;;10.23;6.43;;;;;;;;;;4941100;29;20544;-62
2022/10/12 13:48:58;;;;;;;12.48;7.03;;;;;;;;;;4941134;29;20048;-61
2022/10/12 13:51:26;;;;;;;13.73;6.95;;;;;;;;;;4941429;29;20177;-61
2022/10/12 13:53:53;;;;;;;9.02;6.55;;;;;;;;;;4939523;29;20043;-60
2022/10/12 13:56:24;;;;;;;12.05;7.32;;;;;;;;;;4941296;29;20051;-61
2022/10/12 13:58:55;;;;;;;14.75;7.15;;;;;;;;;;4941137;29;20067;-60
2022/10/12 14:01:21;;;;;;;13.30;7.90;;;;;;;;;;4940090;29;20055;-62
2022/10/12 14:03:48;;;;;;;14.07;6.82;;;;;;;;;;4940642;29;20050;-61
2022/10/12 14:06:34;;;;;;;14.55;7.63;;;;;;;;;;4941235;29;20039;-61
2022/10/12 14:09:04;;;;;;;16.08;8.20;;;;;;;;;;4941296;29;20051;-61
2022/10/12 14:11:31;;;;;;;12.68;8.00;;;;;;;;;;4941619;29;20107;-61
2022/10/12 14:13:57;;;;;;;11.77;7.88;;;;;;;;;;4941431;29;20098;-60
2022/10/12 14:16:23;;;;;;;12.77;8.13;;;;;;;;;;4941491;29;20047;-61
2022/10/12 14:18:50;;;;;;;16.05;7.38;;;;;;;;;;4941314;29;20039;-65
2022/10/12 14:21:21;;;;;;;14.02;7.80;;;;;;;;;;4924425;29;20071;-60
2022/10/12 14:23:58;;;;;;;13.70;8.00;;;;;;;;;;4940733;29;20051;-60
2022/10/12 14:26:25;;;;;;;13.63;7.95;;;;;;;;;;4939824;29;20099;-62
2022/10/12 14:28:51;;;;;;;12.55;8.00;;;;;;;;;;4941352;29;20044;-61
2022/10/12 14:31:18;;;;;;;15.43;7.97;;;;;;;;;;4940911;29;20047;-59
2022/10/12 14:33:44;;;;;;;13.57;8.02;;;;;;;;;;4938772;29;20416;-61
2022/10/12 14:36:11;;;;;;;13.52;7.57;;;;;;;;;;4940343;29;20102;-62
2022/10/12 14:38:44;;;;;;;12.00;7.50;;;;;;;;;;4940462;29;20039;-60
2022/10/12 14:41:31;;;;;;;14.30;7.57;;;;;;;;;;4939487;29;20079;-61
2022/10/12 14:44:17;;;;;;;13.27;7.53;;;;;;;;;;4940142;29;20052;-62
2022/10/12 14:46:51;;;;;;;13.70;7.15;;;;;;;;;;4937395;29;20044;-62
2022/10/12 14:49:18;;;;;;;13.30;7.85;;;;;;;;;;4937614;29;20103;-61
2022/10/12 14:51:45;;;;;;;11.65;7.53;;;;;;;;;;4938117;29;20047;-61
2022/10/12 14:54:11;;;;;;;15.52;7.80;;;;;;;;;;4936913;29;20044;-62
2022/10/12 14:56:37;;;;;;;12.82;7.03;;;;;;;;;;4936156;29;20099;-61